Time;durP1;ratioP1;P1;durP2;ratioP2;P2;SDS_P1;SDS_P2;PMS_P1;PMS_P2;Temp;Humidity;BMP_temperature;BMP_pressure;BME280_temperature;BME280_humidity;BME280_pressure;Samples;Min_cycle;Max_cycle;Signal;HPM_P1;HPM_P2
2024/01/28 00:02:53;;;;;;;31.77;16.55;;;;;;;-0.50;100.00;100737.88;10257711;28;20496;-71
2024/01/28 00:07:54;;;;;;;36.95;17.17;;;;;;;-0.82;100.00;100695.34;10257495;28;20097;-71
2024/01/28 00:12:54;;;;;;;31.02;15.30;;;;;;;-0.59;100.00;100737.56;10257213;28;20066;-71
2024/01/28 00:17:56;;;;;;;30.02;14.88;;;;;;;-0.58;100.00;100732.25;10256550;28;20122;-71
2024/01/28 00:22:57;;;;;;;32.20;14.68;;;;;;;-0.54;100.00;100740.75;10256419;28;20043;-71
2024/01/28 00:27:58;;;;;;;29.40;14.85;;;;;;;-0.66;100.00;100718.78;10256970;28;20067;-71
2024/01/28 00:32:59;;;;;;;32.13;14.50;;;;;;;-0.58;100.00;100723.59;10255793;28;20189;-71
2024/01/28 00:37:59;;;;;;;26.08;13.00;;;;;;;-0.58;100.00;100719.22;10257287;28;20139;-71
2024/01/28 00:43:02;;;;;;;25.70;12.63;;;;;;;-0.57;100.00;100726.13;10255952;28;20108;-71
2024/01/28 00:48:03;;;;;;;23.73;12.25;;;;;;;-0.58;100.00;100723.59;10255528;29;20055;-71
2024/01/28 00:53:04;;;;;;;34.95;13.13;;;;;;;-0.63;100.00;100717.78;10255438;28;20400;-71
2024/01/28 00:58:05;;;;;;;27.55;12.77;;;;;;;-0.93;100.00;100667.28;10255006;29;20046;-71
2024/01/28 01:03:06;;;;;;;24.55;12.35;;;;;;;-0.52;100.00;100724.06;10255248;28;20050;-71
2024/01/28 01:08:07;;;;;;;27.10;11.85;;;;;;;-0.52;100.00;100726.69;10255265;28;20043;-71
2024/01/28 01:13:08;;;;;;;21.33;11.73;;;;;;;-0.60;100.00;100713.25;10255323;28;20043;-71
2024/01/28 01:18:08;;;;;;;20.27;10.90;;;;;;;-0.62;100.00;100709.88;10255434;28;20095;-71
2024/01/28 01:23:09;;;;;;;22.95;10.95;;;;;;;-0.55;100.00;100724.25;10254037;28;20052;-71
2024/01/28 01:28:10;;;;;;;23.73;11.63;;;;;;;-0.65;100.00;100723.09;10254653;28;20043;-71
2024/01/28 01:33:11;;;;;;;26.70;13.32;;;;;;;-0.68;100.00;100732.88;10253818;28;20049;-71
2024/01/28 01:38:11;;;;;;;35.45;15.77;;;;;;;-0.71;100.00;100744.31;10254426;28;20054;-72
2024/01/28 01:43:13;;;;;;;31.00;17.50;;;;;;;-0.74;100.00;100734.91;10254120;28;20065;-71
2024/01/28 01:48:14;;;;;;;31.08;16.52;;;;;;;-0.74;100.00;100745.34;10252408;28;20130;-71
2024/01/28 01:53:16;;;;;;;32.15;16.60;;;;;;;-0.86;100.00;100759.06;10253595;28;20098;-71
2024/01/28 01:58:17;;;;;;;35.80;17.35;;;;;;;-1.02;100.00;100753.81;10253651;28;20129;-72
2024/01/28 02:03:18;;;;;;;35.92;18.17;;;;;;;-1.01;100.00;100762.50;10252337;28;20050;-71
2024/01/28 02:08:19;;;;;;;38.13;17.98;;;;;;;-1.02;100.00;100759.03;10220919;28;20515;-71
2024/01/28 02:13:19;;;;;;;36.33;18.27;;;;;;;-1.21;100.00;100766.19;10252899;28;20077;-71
2024/01/28 02:18:20;;;;;;;31.92;16.50;;;;;;;-1.27;100.00;100769.97;10251491;28;20042;-71
2024/01/28 02:23:21;;;;;;;29.10;16.15;;;;;;;-1.65;100.00;100705.06;10252147;28;20478;-71
2024/01/28 02:28:22;;;;;;;37.08;18.55;;;;;;;-1.31;100.00;100778.88;10251904;28;20047;-71
2024/01/28 02:33:23;;;;;;;30.52;16.42;;;;;;;-1.68;100.00;100743.47;10252321;28;20039;-71
2024/01/28 02:38:24;;;;;;;33.67;17.45;;;;;;;-1.75;100.00;100739.50;10252323;28;20039;-71
2024/01/28 02:43:25;;;;;;;35.42;18.17;;;;;;;-1.53;100.00;100810.41;10251400;28;20070;-72
2024/01/28 02:48:26;;;;;;;29.55;16.63;;;;;;;-1.67;100.00;100799.88;10251999;28;20399;-71
2024/01/28 02:53:26;;;;;;;30.20;16.60;;;;;;;-1.55;100.00;100820.09;10252323;28;20047;-71
2024/01/28 02:58:27;;;;;;;31.48;17.25;;;;;;;-1.46;100.00;100819.59;10252252;28;20047;-71
2024/01/28 03:03:28;;;;;;;37.92;16.92;;;;;;;-1.34;100.00;100822.50;10249902;29;20039;-72
2024/01/28 03:08:28;;;;;;;29.73;17.40;;;;;;;-1.54;100.00;100781.84;10252255;28;20047;-71
2024/01/28 03:13:29;;;;;;;31.38;17.83;;;;;;;-1.26;100.00;100828.13;10250942;28;20031;-71
2024/01/28 03:18:31;;;;;;;32.70;18.00;;;;;;;-1.34;100.00;100836.38;10251506;28;20043;-71
2024/01/28 03:23:32;;;;;;;34.15;18.63;;;;;;;-1.31;100.00;100838.81;10251286;28;20066;-71
2024/01/28 03:28:32;;;;;;;32.75;17.92;;;;;;;-1.54;100.00;100787.88;10256569;28;20050;-71
2024/01/28 03:33:33;;;;;;;30.80;17.23;;;;;;;-1.18;100.00;100852.88;10259255;28;20051;-71
2024/01/28 03:38:34;;;;;;;30.33;17.00;;;;;;;-1.15;100.00;100862.31;10259247;28;20043;-71
2024/01/28 03:43:34;;;;;;;35.08;16.88;;;;;;;-1.30;100.00;100827.47;10258055;28;20407;-71
2024/01/28 03:48:35;;;;;;;30.42;16.73;;;;;;;-1.10;100.00;100865.53;10258425;28;20039;-71
2024/01/28 03:53:36;;;;;;;31.65;15.70;;;;;;;-1.43;100.00;100814.25;10258192;28;20043;-72
2024/01/28 03:58:37;;;;;;;28.92;15.32;;;;;;;-1.21;100.00;100860.03;10257428;28;20047;-71
2024/01/28 04:03:38;;;;;;;25.67;15.07;;;;;;;-1.50;100.00;100830.25;10257693;28;20105;-72
2024/01/28 04:08:38;;;;;;;27.85;14.70;;;;;;;-1.19;100.00;100889.47;10256675;28;20043;-71
2024/01/28 04:13:39;;;;;;;24.05;12.93;;;;;;;-1.21;100.00;100896.53;10255126;28;20051;-73
2024/01/28 04:18:40;;;;;;;26.27;10.43;;;;;;;-1.23;100.00;100893.16;10256730;28;20043;-72
2024/01/28 04:23:41;;;;;;;19.00;8.57;;;;;;;-1.22;100.00;100900.06;10256823;28;20047;-72
2024/01/28 04:28:41;;;;;;;33.00;11.82;;;;;;;-1.23;100.00;100906.19;10255375;28;20043;-72
2024/01/28 04:33:42;;;;;;;14.48;7.70;;;;;;;-1.18;100.00;100909.41;10257404;28;20500;-72
2024/01/28 04:38:43;;;;;;;23.08;9.23;;;;;;;-1.17;100.00;100908.47;10253744;28;20050;-72
2024/01/28 04:43:44;;;;;;;13.88;7.65;;;;;;;-1.11;100.00;100913.38;10256162;28;20063;-72
2024/01/28 04:48:45;;;;;;;17.55;10.07;;;;;;;-1.10;100.00;100922.91;10256349;29;20103;-72
2024/01/28 04:53:46;;;;;;;25.23;13.02;;;;;;;-1.34;100.00;100879.84;10256812;28;20098;-72
2024/01/28 04:58:47;;;;;;;16.95;10.15;;;;;;;-1.03;100.00;100913.81;10255851;29;20047;-72
2024/01/28 05:03:48;;;;;;;14.10;7.28;;;;;;;-1.10;100.00;100883.78;10254934;28;20047;-72
2024/01/28 05:08:49;;;;;;;13.13;6.47;;;;;;;-1.03;100.00;100881.69;10255272;28;20043;-72
2024/01/28 05:13:49;;;;;;;10.38;5.70;;;;;;;-0.70;100.00;100933.84;10255395;29;20098;-73
2024/01/28 05:18:53;;;;;;;13.40;7.35;;;;;;;-0.66;100.00;100932.75;10254443;28;20077;-72
2024/01/28 05:23:54;;;;;;;13.37;7.33;;;;;;;-0.51;100.00;100926.72;10252454;29;20102;-73
2024/01/28 05:28:55;;;;;;;16.65;8.75;;;;;;;-0.36;100.00;100942.47;10247820;29;20103;-72
2024/01/28 05:33:56;;;;;;;13.75;7.88;;;;;;;-0.32;100.00;100931.78;10244828;28;20494;-74
2024/01/28 05:38:57;;;;;;;12.88;7.65;;;;;;;-0.35;100.00;100897.19;10228413;28;20139;-73
2024/01/28 05:43:58;;;;;;;14.15;7.50;;;;;;;0.03;100.00;100957.72;10227519;29;20051;-73
2024/01/28 05:48:59;;;;;;;19.20;8.85;;;;;;;0.04;100.00;100955.97;10235257;28;20043;-70
2024/01/28 05:53:59;;;;;;;25.98;16.73;;;;;;;0.21;100.00;100946.25;10231565;28;20131;-72
2024/01/28 05:59:00;;;;;;;20.13;12.05;;;;;;;0.17;100.00;100904.69;10247472;29;20043;-72
2024/01/28 06:04:01;;;;;;;16.77;9.75;;;;;;;0.55;100.00;100943.47;10252596;28;20126;-72
2024/01/28 06:09:02;;;;;;;9.30;6.10;;;;;;;0.71;100.00;100944.25;10252545;29;20534;-72
2024/01/28 06:14:03;;;;;;;8.30;5.75;;;;;;;0.75;100.00;100966.69;10252136;28;20055;-72
2024/01/28 06:19:04;;;;;;;13.20;8.32;;;;;;;0.74;100.00;100964.16;10252655;29;20079;-72
2024/01/28 06:24:05;;;;;;;13.38;8.00;;;;;;;0.39;100.00;100879.00;10249580;29;20078;-71
2024/01/28 06:29:06;;;;;;;15.95;8.82;;;;;;;0.83;100.00;100930.44;10246097;28;20046;-72
2024/01/28 06:34:07;;;;;;;14.32;9.75;;;;;;;1.28;100.00;100975.72;10245694;29;20050;-72
2024/01/28 06:39:08;;;;;;;19.77;11.13;;;;;;;1.39;100.00;100977.69;10246435;28;20046;-71
2024/01/28 06:44:09;;;;;;;19.42;11.75;;;;;;;1.49;100.00;100973.56;10252051;28;20063;-72
2024/01/28 06:49:10;;;;;;;20.05;12.05;;;;;;;1.60;100.00;100978.16;10251307;29;20047;-73
2024/01/28 06:54:11;;;;;;;21.15;12.05;;;;;;;1.54;99.72;100913.06;10250287;28;20043;-73
2024/01/28 06:59:12;;;;;;;22.63;12.77;;;;;;;2.07;98.17;100995.28;10248466;29;20142;-74
2024/01/28 07:04:12;;;;;;;21.35;13.05;;;;;;;1.63;97.38;100903.78;10261789;28;20039;-73
2024/01/28 07:09:13;;;;;;;20.27;13.68;;;;;;;2.03;97.65;100996.41;10264086;28;20058;-73
2024/01/28 07:14:14;;;;;;;21.42;11.88;;;;;;;1.76;96.42;100988.50;10264824;28;20129;-72
2024/01/28 07:19:15;;;;;;;25.20;13.52;;;;;;;1.47;97.66;100982.47;10263428;28;20047;-73
2024/01/28 07:24:16;;;;;;;15.75;9.70;;;;;;;1.21;97.94;100923.84;10263676;28;20113;-70
2024/01/28 07:29:16;;;;;;;12.60;7.80;;;;;;;1.23;97.42;100943.75;10263831;28;20039;-72
2024/01/28 07:34:19;;;;;;;11.98;6.97;;;;;;;1.74;96.62;101001.72;10264114;28;20043;-72
2024/01/28 07:39:20;;;;;;;10.50;6.60;;;;;;;1.55;94.98;101007.22;10264243;28;20078;-71
2024/01/28 07:44:21;;;;;;;11.77;7.80;;;;;;;1.55;95.17;101012.47;10260857;28;20232;-71
2024/01/28 07:49:22;;;;;;;10.73;6.65;;;;;;;1.53;95.63;100971.63;10263215;28;20471;-71
2024/01/28 07:54:23;;;;;;;12.13;8.13;;;;;;;1.92;95.18;101004.13;10263257;28;20053;-71
2024/01/28 07:59:23;;;;;;;16.75;9.20;;;;;;;2.20;94.40;101014.53;10263017;28;20047;-70
2024/01/28 08:04:24;;;;;;;14.70;9.05;;;;;;;2.72;93.22;101005.06;10262830;28;20047;-70
2024/01/28 08:09:27;;;;;;;16.08;10.20;;;;;;;2.67;92.94;100996.69;10263371;28;20047;-71
2024/01/28 08:14:28;;;;;;;17.23;9.90;;;;;;;2.82;92.72;101000.91;10260337;28;20058;-71
2024/01/28 08:19:30;;;;;;;16.98;10.07;;;;;;;2.68;92.76;100999.19;10257141;29;20050;-71
2024/01/28 08:24:31;;;;;;;14.52;10.43;;;;;;;2.11;92.67;100988.91;10257047;28;20475;-71
2024/01/28 08:29:32;;;;;;;21.15;11.77;;;;;;;2.13;93.89;100988.84;10256565;28;20098;-70
2024/01/28 08:34:33;;;;;;;15.40;10.60;;;;;;;1.86;93.76;100944.25;10255980;28;20134;-70
2024/01/28 08:39:34;;;;;;;14.05;10.18;;;;;;;2.12;93.06;100987.13;10256568;28;20126;-71
2024/01/28 08:44:38;;;;;;;18.50;9.60;;;;;;;2.15;92.67;100994.78;10256079;28;20154;-71
2024/01/28 08:49:39;;;;;;;15.13;9.68;;;;;;;1.39;93.17;100942.81;10256639;29;20424;-71
2024/01/28 08:54:43;;;;;;;12.23;8.80;;;;;;;1.43;94.61;100946.91;10255293;29;20039;-71
2024/01/28 08:59:44;;;;;;;15.50;8.65;;;;;;;1.80;93.97;100996.09;10256292;28;20046;-70
2024/01/28 09:04:44;;;;;;;11.05;7.18;;;;;;;1.49;94.05;100976.19;10254920;29;20126;-71
2024/01/28 09:09:45;;;;;;;10.63;6.88;;;;;;;1.51;93.90;101002.28;10255339;29;20545;-71
2024/01/28 09:14:46;;;;;;;13.20;7.15;;;;;;;1.29;94.32;100963.50;10252521;29;20129;-70
2024/01/28 09:19:46;;;;;;;9.65;6.93;;;;;;;1.52;94.41;101002.16;10243910;28;20055;-70
2024/01/28 09:24:47;;;;;;;8.95;6.05;;;;;;;1.27;94.47;100947.88;10253718;28;20508;-70
2024/01/28 09:29:48;;;;;;;10.75;6.40;;;;;;;1.75;94.31;100987.66;10254531;28;20054;-70
2024/01/28 09:34:49;;;;;;;8.88;6.82;;;;;;;1.78;93.30;100955.22;10254914;28;20043;-70
2024/01/28 09:39:49;;;;;;;15.20;10.65;;;;;;;1.63;92.96;100940.47;10253425;28;20050;-70
2024/01/28 09:44:50;;;;;;;12.60;8.82;;;;;;;1.52;92.71;100938.50;10253473;28;20575;-70
2024/01/28 09:49:52;;;;;;;11.18;7.93;;;;;;;1.86;92.82;100996.66;10253855;28;20043;-70
2024/01/28 09:54:53;;;;;;;11.20;8.38;;;;;;;1.52;92.37;100943.72;10254102;28;20075;-70
2024/01/28 09:59:54;;;;;;;13.63;9.30;;;;;;;1.66;92.52;100977.78;10253407;28;20129;-70
2024/01/28 10:04:56;;;;;;;12.10;7.32;;;;;;;1.90;92.42;100993.72;10252692;29;20039;-70
2024/01/28 10:09:57;;;;;;;9.85;6.35;;;;;;;1.76;92.03;100968.38;10253202;29;20170;-71
2024/01/28 10:14:58;;;;;;;8.43;6.45;;;;;;;1.70;92.34;101001.97;10251623;28;20189;-71
2024/01/28 10:19:59;;;;;;;9.95;7.15;;;;;;;1.79;92.48;100998.78;10252128;29;20047;-70
2024/01/28 10:25:00;;;;;;;9.60;6.82;;;;;;;1.82;92.35;100989.00;10252103;29;20043;-70
2024/01/28 10:30:03;;;;;;;7.70;5.88;;;;;;;1.71;91.62;101011.53;10252181;29;20510;-69
2024/01/28 10:35:11;;;;;;;13.98;9.40;;;;;;;1.76;91.69;101025.19;10231385;28;20039;-69
2024/01/28 10:40:13;;;;;;;9.88;6.35;;;;;;;1.55;92.03;101007.22;10234280;29;20389;-70
2024/01/28 10:45:18;;;;;;;8.93;6.65;;;;;;;1.46;92.34;101009.56;10250130;29;20067;-70
2024/01/28 10:50:21;;;;;;;11.07;6.78;;;;;;;1.49;92.20;101017.22;10250379;29;20139;-67
2024/01/28 10:55:22;;;;;;;7.85;4.82;;;;;;;1.52;92.40;101028.34;10228809;29;20058;-72
2024/01/28 11:00:24;;;;;;;10.30;6.22;;;;;;;1.40;92.72;101034.34;10210560;29;20118;-70
2024/01/28 11:05:29;;;;;;;8.55;6.15;;;;;;;1.35;92.62;101026.78;10211855;29;20095;-71
2024/01/28 11:10:30;;;;;;;;;;;;;;;1.46;92.39;101031.34;10222975;29;20150;-70
2024/01/28 11:15:30;;;;;;;10.43;7.10;;;;;;;1.30;92.71;101027.97;10250077;29;20033;-67
2024/01/28 11:20:32;;;;;;;9.23;6.82;;;;;;;1.34;92.58;101039.94;10250685;28;20051;-67
2024/01/28 11:25:36;;;;;;;10.75;6.72;;;;;;;1.45;92.52;101045.38;10250712;29;20043;-69
2024/01/28 11:30:38;;;;;;;10.07;6.30;;;;;;;1.27;92.60;101028.16;10251016;28;20098;-69
2024/01/28 11:35:43;;;;;;;10.15;6.05;;;;;;;1.30;92.59;101051.53;10221785;28;20051;-70
2024/01/28 11:40:47;;;;;;;8.77;6.03;;;;;;;1.25;92.78;101050.97;10209791;29;20044;-67
2024/01/28 11:45:49;;;;;;;8.57;5.32;;;;;;;1.29;92.75;101060.34;10210022;29;20068;-68
2024/01/28 11:50:50;;;;;;;8.27;5.90;;;;;;;1.25;92.62;101067.50;10217231;29;20130;-70
2024/01/28 11:55:50;;;;;;;9.88;6.35;;;;;;;1.14;92.56;101059.47;10218117;29;20552;-68
2024/01/28 12:00:51;;;;;;;9.90;5.60;;;;;;;1.18;92.96;101075.81;10253793;29;20126;-71
2024/01/28 12:05:52;;;;;;;10.93;6.30;;;;;;;0.72;92.69;101055.78;10257159;28;20077;-69
2024/01/28 12:11:00;;;;;;;10.38;6.90;;;;;;;0.64;94.07;101089.34;10257464;29;20122;-69
2024/01/28 12:16:01;;;;;;;11.25;7.45;;;;;;;0.55;94.05;101068.97;10256890;29;20083;-70
2024/01/28 12:21:02;;;;;;;12.95;7.93;;;;;;;0.48;94.25;101085.88;10257598;28;20141;-68
2024/01/28 12:26:03;;;;;;;14.05;8.68;;;;;;;0.49;94.94;101114.56;10256992;29;20137;-69
2024/01/28 12:31:04;;;;;;;12.05;7.65;;;;;;;0.48;94.66;101102.44;10256253;29;20039;-70
2024/01/28 12:36:05;;;;;;;13.10;8.98;;;;;;;0.62;95.47;101123.41;10223404;29;20134;-69
2024/01/28 12:41:07;;;;;;;15.57;9.73;;;;;;;0.61;95.68;101115.69;10233681;29;20035;-68
2024/01/28 12:46:09;;;;;;;14.75;9.25;;;;;;;0.76;95.52;101129.66;10255524;28;20073;-69
2024/01/28 12:51:10;;;;;;;15.52;9.95;;;;;;;0.70;95.61;101122.16;10254502;28;20039;-69
2024/01/28 12:56:10;;;;;;;14.55;10.05;;;;;;;0.67;95.87;101131.03;10255597;28;20046;-69
2024/01/28 13:01:11;;;;;;;14.05;8.95;;;;;;;0.67;96.18;101144.09;10254776;28;20122;-69
2024/01/28 13:06:12;;;;;;;12.70;8.60;;;;;;;0.39;95.98;101098.56;10254923;28;20054;-69
2024/01/28 13:11:13;;;;;;;13.75;7.95;;;;;;;0.50;96.09;101137.16;10255446;28;20043;-69
2024/01/28 13:16:15;;;;;;;12.68;8.48;;;;;;;0.55;96.13;101143.00;10255231;29;20035;-69
2024/01/28 13:21:16;;;;;;;16.17;8.68;;;;;;;0.55;96.00;101144.78;10254224;29;20392;-70
2024/01/28 13:26:18;;;;;;;15.32;8.73;;;;;;;0.41;96.13;101135.91;10254838;29;20050;-69
2024/01/28 13:31:19;;;;;;;16.23;9.98;;;;;;;-0.02;96.16;101082.50;10255143;28;20049;-69
2024/01/28 13:36:20;;;;;;;14.77;9.95;;;;;;;0.36;96.33;101152.75;10254572;29;20039;-69
2024/01/28 13:41:21;;;;;;;17.42;9.45;;;;;;;0.19;96.35;101138.00;10254167;29;20047;-69
2024/01/28 13:46:22;;;;;;;13.75;9.23;;;;;;;-0.19;96.22;101106.06;10253802;29;20118;-69
2024/01/28 13:51:23;;;;;;;23.30;14.50;;;;;;;-0.17;96.99;101117.28;10253164;29;20070;-69
2024/01/28 13:56:24;;;;;;;33.30;19.00;;;;;;;0.04;97.28;101165.78;10253713;28;20519;-69
2024/01/28 14:01:26;;;;;;;40.20;23.75;;;;;;;-0.07;97.50;101168.94;10253497;28;20039;-69
2024/01/28 14:06:27;;;;;;;16.23;11.90;;;;;;;-0.43;97.78;101110.78;10253477;28;20051;-69
2024/01/28 14:11:28;;;;;;;19.15;11.77;;;;;;;-0.32;98.47;101139.81;10253133;28;20204;-69
2024/01/28 14:16:29;;;;;;;16.83;12.30;;;;;;;-0.10;98.97;101189.97;10252966;28;20385;-70
2024/01/28 14:21:30;;;;;;;18.75;12.77;;;;;;;-0.47;99.12;101134.44;10252326;28;20081;-69
2024/01/28 14:26:31;;;;;;;18.05;12.57;;;;;;;-0.18;99.13;101192.16;10252467;28;20047;-71
2024/01/28 14:31:31;;;;;;;17.50;12.20;;;;;;;-0.36;99.57;101169.56;10253252;28;20090;-68
2024/01/28 14:36:33;;;;;;;17.77;11.70;;;;;;;-0.37;99.83;101170.50;10252433;28;20499;-69
2024/01/28 14:41:33;;;;;;;20.52;11.48;;;;;;;-0.33;99.99;101198.13;10251360;28;20039;-68
2024/01/28 14:46:34;;;;;;;20.45;12.70;;;;;;;-0.36;99.82;101201.78;10252686;28;20063;-69
2024/01/28 14:51:39;;;;;;;18.23;12.30;;;;;;;-0.39;99.87;101207.16;10252565;28;20050;-68
2024/01/28 14:56:39;;;;;;;;;;;;;;;-0.34;100.00;101223.41;10251783;28;20043;-68
2024/01/28 15:01:40;;;;;;;21.30;13.02;;;;;;;-0.96;99.91;101155.13;10251243;28;19922;-68
2024/01/28 15:06:41;;;;;;;22.85;14.27;;;;;;;-0.46;100.00;101229.25;10251507;28;20039;-68
2024/01/28 15:11:42;;;;;;;23.70;15.10;;;;;;;-0.46;100.00;101239.69;10251153;28;20110;-69
2024/01/28 15:16:42;;;;;;;20.48;13.05;;;;;;;-0.88;100.00;101187.81;10237132;28;20505;-70
2024/01/28 15:21:43;;;;;;;20.48;13.18;;;;;;;-0.92;100.00;101195.78;10250679;28;20047;-70
2024/01/28 15:26:44;;;;;;;22.17;13.95;;;;;;;-0.73;100.00;101232.25;10259214;28;20046;-70
2024/01/28 15:31:46;;;;;;;33.28;21.40;;;;;;;-0.62;100.00;101250.03;10256064;28;20500;-72
2024/01/28 15:36:47;;;;;;;33.80;20.58;;;;;;;-0.58;100.00;101259.38;10259222;28;20546;-70
2024/01/28 15:41:49;;;;;;;22.15;13.55;;;;;;;-0.62;100.00;101268.28;10258052;28;20047;-70
2024/01/28 15:46:50;;;;;;;23.15;13.93;;;;;;;-0.96;100.00;101229.91;10258861;28;20102;-69
2024/01/28 15:51:51;;;;;;;26.80;14.90;;;;;;;-0.79;100.00;101282.13;10255332;28;20047;-70
2024/01/28 15:56:51;;;;;;;31.35;16.50;;;;;;;-0.81;100.00;101283.97;10257470;28;20411;-69
2024/01/28 16:01:52;;;;;;;21.50;13.35;;;;;;;-0.76;100.00;101302.03;10257933;28;20043;-70
2024/01/28 16:06:53;;;;;;;24.08;14.50;;;;;;;-0.78;100.00;101306.44;10257714;28;20142;-70
2024/01/28 16:11:54;;;;;;;24.10;15.27;;;;;;;-1.18;100.00;101256.97;10256988;28;20559;-70
2024/01/28 16:16:55;;;;;;;21.52;14.30;;;;;;;-0.97;100.00;101296.88;10258343;28;20052;-69
2024/01/28 16:21:56;;;;;;;25.75;15.90;;;;;;;-0.99;100.00;101309.16;10256056;29;20043;-69
2024/01/28 16:26:58;;;;;;;25.55;14.98;;;;;;;-1.18;100.00;101314.34;10255677;28;20050;-69
2024/01/28 16:31:59;;;;;;;23.80;14.52;;;;;;;-1.18;100.00;101323.94;10257154;28;20046;-69
2024/01/28 16:37:02;;;;;;;21.95;14.15;;;;;;;-1.19;100.00;101332.69;10255335;28;20036;-71
2024/01/28 16:42:03;;;;;;;25.30;16.73;;;;;;;-1.21;100.00;101348.38;10255832;28;20057;-69
2024/01/28 16:47:04;;;;;;;26.17;16.33;;;;;;;-1.47;100.00;101297.38;10255928;28;20519;-69
2024/01/28 16:52:05;;;;;;;28.23;17.65;;;;;;;-1.11;100.00;101355.78;10255046;29;20320;-69
2024/01/28 16:57:06;;;;;;;27.38;15.95;;;;;;;-1.45;100.00;101294.72;10255687;28;20093;-70
2024/01/28 17:02:07;;;;;;;23.40;15.55;;;;;;;-1.14;100.00;101356.75;10256002;28;20136;-69
2024/01/28 17:07:08;;;;;;;25.25;16.52;;;;;;;-1.24;100.00;101355.50;10254110;28;20047;-69
2024/01/28 17:12:09;;;;;;;25.90;17.15;;;;;;;-1.19;100.00;101348.31;10254760;28;20102;-69
2024/01/28 17:17:11;;;;;;;25.42;16.05;;;;;;;-1.04;100.00;101355.47;10255320;28;20590;-69
2024/01/28 17:22:11;;;;;;;27.30;15.68;;;;;;;-1.38;100.00;101298.75;10254745;28;20397;-70
2024/01/28 17:27:12;;;;;;;29.42;17.80;;;;;;;-1.11;100.00;101342.75;10254168;28;20052;-70
2024/01/28 17:32:13;;;;;;;25.02;16.02;;;;;;;-1.08;100.00;101350.44;10254050;28;20043;-70
2024/01/28 17:37:14;;;;;;;32.25;19.13;;;;;;;-1.03;100.00;101364.97;10253518;28;20050;-70
2024/01/28 17:42:14;;;;;;;32.50;18.50;;;;;;;-0.91;100.00;101368.78;10252522;29;20499;-70
2024/01/28 17:47:15;;;;;;;99.47;50.22;;;;;;;-0.93;100.00;101376.69;10253989;28;20090;-70
2024/01/28 17:52:16;;;;;;;39.58;22.38;;;;;;;-1.45;100.00;101290.34;10252513;28;20047;-70
2024/01/28 17:57:17;;;;;;;37.08;21.80;;;;;;;-1.08;100.00;101366.91;10251775;28;20051;-70
2024/01/28 18:02:18;;;;;;;34.08;20.52;;;;;;;-1.32;100.00;101318.47;10253017;28;20049;-71
2024/01/28 18:07:19;;;;;;;34.92;21.80;;;;;;;-1.06;100.00;101372.94;10253193;28;20042;-71
2024/01/28 18:12:19;;;;;;;29.83;18.83;;;;;;;-1.09;100.00;101360.03;10252565;28;20047;-71
2024/01/28 18:17:20;;;;;;;27.33;17.63;;;;;;;-1.02;100.00;101376.25;10252598;28;20782;-71
2024/01/28 18:22:21;;;;;;;33.78;19.50;;;;;;;-1.35;100.00;101324.66;10252926;28;20050;-71
2024/01/28 18:27:22;;;;;;;33.13;19.85;;;;;;;-1.08;100.00;101366.91;10252307;28;20508;-71
2024/01/28 18:32:23;;;;;;;31.88;18.83;;;;;;;-1.17;100.00;101369.94;10250551;29;20043;-71
2024/01/28 18:37:23;;;;;;;38.22;23.48;;;;;;;-1.25;100.00;101369.44;10250640;29;20050;-71
2024/01/28 18:42:24;;;;;;;34.97;21.30;;;;;;;-1.38;100.00;101354.34;10250971;28;20483;-71
2024/01/28 18:47:26;;;;;;;41.05;24.15;;;;;;;-1.22;100.00;101364.94;10252886;28;20142;-71
2024/01/28 18:52:28;;;;;;;37.50;21.33;;;;;;;-1.58;100.00;101309.22;10251268;28;20452;-71
2024/01/28 18:57:29;;;;;;;43.92;24.77;;;;;;;-1.31;100.00;101343.66;10250599;28;20043;-71
2024/01/28 19:02:29;;;;;;;51.67;28.55;;;;;;;-1.48;100.00;101306.13;10250807;28;20043;-72
2024/01/28 19:07:30;;;;;;;39.63;22.52;;;;;;;-1.70;100.00;101263.69;10250749;28;20070;-73
2024/01/28 19:12:31;;;;;;;41.85;22.80;;;;;;;-1.25;100.00;101348.59;10251014;28;20094;-72
2024/01/28 19:17:31;;;;;;;36.28;21.58;;;;;;;-1.45;100.00;101342.47;10251515;28;20542;-72
2024/01/28 19:22:32;;;;;;;34.55;19.52;;;;;;;-1.52;100.00;101346.28;10250944;28;20070;-72
2024/01/28 19:27:33;;;;;;;33.88;20.52;;;;;;;-1.88;100.00;101299.19;10251245;28;20043;-73
2024/01/28 19:32:34;;;;;;;44.85;22.25;;;;;;;-2.10;100.00;101281.84;10251563;28;20152;-72
2024/01/28 19:37:35;;;;;;;44.92;22.50;;;;;;;-2.00;100.00;101303.16;10250960;28;20496;-72
2024/01/28 19:42:36;;;;;;;38.05;20.08;;;;;;;-1.95;100.00;101298.59;10250472;28;20051;-72
2024/01/28 19:47:38;;;;;;;36.63;19.13;;;;;;;-1.65;100.00;101332.06;10251329;28;20055;-72
2024/01/28 19:52:38;;;;;;;32.97;18.30;;;;;;;-1.70;100.00;101342.69;10251224;29;20051;-72
2024/01/28 19:57:39;;;;;;;36.95;18.15;;;;;;;-1.69;100.00;101356.56;10250738;28;20047;-72
2024/01/28 20:02:40;;;;;;;40.25;21.27;;;;;;;-1.54;100.00;101378.50;10249919;28;20039;-72
2024/01/28 20:07:40;;;;;;;31.92;16.48;;;;;;;-1.91;100.00;101331.41;10251050;28;20043;-72
2024/01/28 20:12:41;;;;;;;31.95;16.88;;;;;;;-1.91;100.00;101335.78;10257901;28;20542;-72
2024/01/28 20:17:42;;;;;;;44.83;23.17;;;;;;;-1.64;100.00;101378.91;10257523;28;20496;-72
2024/01/28 20:22:43;;;;;;;57.58;27.88;;;;;;;-1.67;100.00;101365.16;10257244;28;20043;-72
2024/01/28 20:27:43;;;;;;;55.55;26.02;;;;;;;-1.96;100.00;101330.75;10256830;28;20047;-72
2024/01/28 20:32:44;;;;;;;45.17;23.08;;;;;;;-1.66;100.00;101379.88;10257016;28;20043;-72
2024/01/28 20:37:45;;;;;;;34.30;18.23;;;;;;;-1.93;100.00;101320.22;10256851;28;20138;-72
2024/01/28 20:42:52;;;;;;;32.78;16.20;;;;;;;-1.66;100.00;101356.44;10256640;28;20067;-72
2024/01/28 20:47:54;;;;;;;32.22;16.88;;;;;;;-1.47;100.00;101374.72;10257133;28;20035;-72
2024/01/28 20:52:55;;;;;;;30.92;16.02;;;;;;;-1.77;100.00;101325.63;10254833;28;20137;-72
2024/01/28 20:57:56;;;;;;;30.52;15.18;;;;;;;-1.77;100.00;101327.38;10257087;28;20134;-72
2024/01/28 21:02:56;;;;;;;29.73;15.77;;;;;;;-1.46;100.00;101371.22;10256000;28;20496;-70
2024/01/28 21:07:58;;;;;;;29.38;14.70;;;;;;;-1.49;100.00;101372.19;10256287;28;20039;-72
2024/01/28 21:12:59;;;;;;;32.72;15.40;;;;;;;-1.45;100.00;101375.50;10255485;28;20555;-72
2024/01/28 21:18:00;;;;;;;34.60;18.63;;;;;;;-1.85;100.00;101297.31;10255837;28;20401;-72
2024/01/28 21:23:01;;;;;;;30.23;16.02;;;;;;;-1.69;100.00;101325.31;10252535;28;20039;-72
2024/01/28 21:28:01;;;;;;;31.58;15.65;;;;;;;-1.34;100.00;101375.91;10254456;28;20055;-72
2024/01/28 21:33:03;;;;;;;30.20;15.55;;;;;;;-1.47;100.00;101359.09;10254732;28;20054;-72
2024/01/28 21:38:04;;;;;;;29.83;16.33;;;;;;;-1.40;100.00;101379.63;10254617;28;20436;-73
2024/01/28 21:43:04;;;;;;;30.40;15.77;;;;;;;-1.78;100.00;101318.72;10254532;28;20070;-72
2024/01/28 21:48:06;;;;;;;30.33;14.80;;;;;;;-1.40;100.00;101392.66;10253612;28;20508;-72
2024/01/28 21:53:06;;;;;;;29.60;14.00;;;;;;;-1.55;100.00;101375.06;10253327;28;20043;-72
2024/01/28 21:58:07;;;;;;;27.45;15.13;;;;;;;-1.49;100.00;101387.84;10254020;28;20047;-72
2024/01/28 22:03:08;;;;;;;33.35;18.17;;;;;;;-1.54;100.00;101400.22;10254016;28;20043;-72
2024/01/28 22:08:09;;;;;;;28.92;16.77;;;;;;;-1.62;100.00;101399.66;10253430;28;20117;-72
2024/01/28 22:13:10;;;;;;;23.33;14.15;;;;;;;-1.51;100.00;101405.28;10251616;28;20046;-72
2024/01/28 22:18:10;;;;;;;21.38;13.38;;;;;;;-1.53;100.00;101401.88;10252687;28;20043;-72
2024/01/28 22:23:11;;;;;;;29.08;12.82;;;;;;;-1.45;100.00;101417.22;10252308;28;20043;-72
2024/01/28 22:28:12;;;;;;;19.60;12.55;;;;;;;-1.73;100.00;101370.63;10250928;29;20137;-72
2024/01/28 22:33:13;;;;;;;22.35;13.15;;;;;;;-1.72;100.00;101393.16;10251951;28;20047;-72